Time;durP1;ratioP1;P1;durP2;ratioP2;P2;SDS_P1;SDS_P2;PMS_P1;PMS_P2;Temp;Humidity;BMP_temperature;BMP_pressure;BME280_temperature;BME280_humidity;BME280_pressure;Samples;Min_cycle;Max_cycle;Signal;HPM_P1;HPM_P2
2023/08/31 00:02:11;;;;;;;7.97;4.32;;;12.90;99.90;;;;;;5020322;28;20021;-79
2023/08/31 00:04:38;;;;;;;10.90;4.82;;;12.90;99.90;;;;;;5020256;28;20063;-78
2023/08/31 00:07:04;;;;;;;9.48;4.35;;;12.90;99.90;;;;;;5020852;28;20041;-77
2023/08/31 00:09:29;;;;;;;8.90;4.63;;;12.90;99.90;;;;;;5022140;28;20532;-77
2023/08/31 00:11:56;;;;;;;8.25;4.47;;;12.90;99.90;;;;;;5020311;28;21430;-76
2023/08/31 00:14:23;;;;;;;8.88;4.32;;;12.80;99.90;;;;;;5021014;28;20048;-76
2023/08/31 00:16:49;;;;;;;11.57;4.40;;;12.80;99.90;;;;;;5021508;28;20022;-76
2023/08/31 00:19:15;;;;;;;11.15;4.10;;;12.80;99.90;;;;;;5021181;28;20021;-76
2023/08/31 00:21:42;;;;;;;7.70;4.00;;;12.80;99.90;;;;;;5020686;28;20026;-77
2023/08/31 00:24:09;;;;;;;10.60;4.70;;;12.70;99.90;;;;;;5020425;28;20038;-77
2023/08/31 00:26:42;;;;;;;10.38;4.15;;;12.70;99.90;;;;;;5022052;28;20034;-76
2023/08/31 00:29:10;;;;;;;11.55;4.50;;;12.70;99.90;;;;;;5021887;28;20422;-77
2023/08/31 00:31:36;;;;;;;13.68;4.22;;;12.70;99.90;;;;;;5019713;28;20093;-77
2023/08/31 00:34:03;;;;;;;14.07;4.20;;;12.60;99.90;;;;;;5020401;28;20115;-77
2023/08/31 00:36:30;;;;;;;10.85;4.05;;;12.70;99.90;;;;;;5020701;28;20026;-76
2023/08/31 00:38:56;;;;;;;11.00;4.30;;;12.60;99.90;;;;;;5019136;28;20026;-75
2023/08/31 00:41:22;;;;;;;7.80;3.60;;;12.60;99.90;;;;;;5023873;28;20025;-76
2023/08/31 00:43:48;;;;;;;10.02;3.78;;;12.60;99.90;;;;;;5022876;28;20094;-76
2023/08/31 00:46:14;;;;;;;9.93;3.92;;;12.60;99.90;;;;;;5024345;28;20077;-77
2023/08/31 00:48:41;;;;;;;10.40;4.43;;;12.50;99.90;;;;;;5025085;28;20108;-76
2023/08/31 00:51:08;;;;;;;7.53;3.75;;;12.60;99.90;;;;;;5024560;28;20065;-76
2023/08/31 00:53:35;;;;;;;10.10;4.22;;;12.50;99.90;;;;;;5021818;28;20026;-76
2023/08/31 00:56:02;;;;;;;6.30;3.72;;;12.50;99.90;;;;;;5023383;28;20030;-76
2023/08/31 00:58:27;;;;;;;7.40;3.60;;;12.50;99.90;;;;;;5024663;28;20093;-74
2023/08/31 01:01:00;;;;;;;7.63;4.05;;;12.50;99.90;;;;;;5023070;28;20088;-77
2023/08/31 01:03:34;;;;;;;5.63;3.30;;;12.40;99.90;;;;;;5024759;28;20477;-76
2023/08/31 01:06:27;;;;;;;7.18;3.80;;;12.40;99.90;;;;;;5022304;28;20045;-76
2023/08/31 01:09:39;;;;;;;10.77;3.95;;;12.40;99.90;;;;;;5031631;28;20073;-77
2023/08/31 01:12:08;;;;;;;8.85;3.97;;;12.30;99.90;;;;;;5022955;28;20751;-74
2023/08/31 01:14:44;;;;;;;10.55;3.65;;;12.30;99.90;;;;;;5023474;28;20022;-78
2023/08/31 01:17:14;;;;;;;6.43;3.33;;;12.20;99.90;;;;;;5023508;28;20049;-77
2023/08/31 01:19:44;;;;;;;10.45;3.88;;;12.20;99.90;;;;;;5023911;28;20057;-79
2023/08/31 01:22:31;;;;;;;7.22;3.22;;;12.20;99.90;;;;;;5024678;28;20033;-77
2023/08/31 01:25:03;;;;;;;9.07;3.45;;;12.20;99.90;;;;;;5023741;28;20064;-77
2023/08/31 01:27:32;;;;;;;9.75;3.67;;;12.10;99.90;;;;;;5023309;28;20046;-78
2023/08/31 01:29:58;;;;;;;6.47;3.15;;;12.10;99.90;;;;;;5023137;28;20040;-78
2023/08/31 01:32:24;;;;;;;11.20;3.92;;;12.10;99.90;;;;;;5022249;28;20030;-77
2023/08/31 01:34:53;;;;;;;12.90;3.92;;;12.10;99.90;;;;;;5021436;28;21037;-77
2023/08/31 01:37:30;;;;;;;7.05;3.40;;;12.10;99.90;;;;;;5022324;28;20037;-79
2023/08/31 01:40:01;;;;;;;6.20;3.40;;;12.10;99.90;;;;;;5023238;28;20022;-78
2023/08/31 01:42:29;;;;;;;7.25;3.45;;;12.00;99.90;;;;;;5022260;28;20050;-77
2023/08/31 01:44:56;;;;;;;6.53;3.53;;;12.00;99.90;;;;;;5021568;28;20055;-79
2023/08/31 01:47:22;;;;;;;5.35;3.47;;;12.00;99.90;;;;;;5021398;28;20506;-77
2023/08/31 01:49:48;;;;;;;8.95;3.78;;;11.90;99.90;;;;;;5023490;28;20026;-78
2023/08/31 01:52:14;;;;;;;7.25;3.45;;;11.90;99.90;;;;;;5020855;28;20022;-77
2023/08/31 01:54:40;;;;;;;8.73;3.40;;;11.90;99.90;;;;;;5023277;28;20033;-78
2023/08/31 01:57:06;;;;;;;9.00;3.60;;;11.90;99.90;;;;;;5022270;28;20045;-78
2023/08/31 01:59:32;;;;;;;9.98;3.35;;;11.90;99.90;;;;;;5023463;28;20030;-76
2023/08/31 02:01:58;;;;;;;10.00;3.47;;;11.90;99.90;;;;;;5021668;28;20558;-77
2023/08/31 02:04:24;;;;;;;10.25;3.75;;;11.80;99.90;;;;;;5023294;28;20066;-77
2023/08/31 02:06:49;;;;;;;7.72;4.05;;;11.90;99.90;;;;;;5021757;28;20041;-78
2023/08/31 02:09:15;;;;;;;10.68;3.70;;;11.80;99.90;;;;;;5023354;28;20030;-77
2023/08/31 02:11:41;;;;;;;11.30;4.35;;;11.80;99.90;;;;;;5023142;28;20030;-78
2023/08/31 02:14:07;;;;;;;7.18;3.80;;;11.80;99.90;;;;;;5022091;28;20026;-77
2023/08/31 02:16:33;;;;;;;10.43;3.92;;;11.80;99.90;;;;;;5020964;28;20026;-77
2023/08/31 02:18:59;;;;;;;7.97;3.72;;;11.80;99.90;;;;;;5022833;28;20033;-77
2023/08/31 02:21:25;;;;;;;8.88;3.72;;;11.80;99.90;;;;;;5021141;28;20087;-76
2023/08/31 02:23:51;;;;;;;9.52;3.88;;;11.80;99.90;;;;;;5021381;28;20084;-76
2023/08/31 02:26:16;;;;;;;16.92;4.07;;;11.80;99.90;;;;;;5022531;28;20044;-76
2023/08/31 02:28:42;;;;;;;6.88;4.10;;;11.80;99.90;;;;;;5021373;28;20479;-75
2023/08/31 02:31:11;;;;;;;8.75;3.80;;;11.80;99.90;;;;;;5021937;28;20057;-76
2023/08/31 02:33:37;;;;;;;13.85;3.83;;;11.80;99.90;;;;;;5021964;28;20040;-76
2023/08/31 02:36:03;;;;;;;10.57;4.20;;;11.70;99.90;;;;;;5021193;28;20039;-76
2023/08/31 02:38:28;;;;;;;7.63;4.20;;;11.80;99.90;;;;;;5019944;28;20100;-76
2023/08/31 02:40:54;;;;;;;8.80;4.13;;;11.80;99.90;;;;;;5022887;28;20036;-78
2023/08/31 02:43:20;;;;;;;9.45;4.95;;;11.70;99.90;;;;;;5021569;28;20029;-76
2023/08/31 02:45:46;;;;;;;23.13;11.05;;;11.70;99.90;;;;;;5022807;28;20186;-75
2023/08/31 02:48:13;;;;;;;30.10;17.45;;;11.70;99.90;;;;;;5022369;28;20030;-77
2023/08/31 02:50:39;;;;;;;39.28;20.13;;;11.60;99.90;;;;;;5020866;28;20507;-76
2023/08/31 02:53:05;;;;;;;37.13;20.38;;;11.70;99.90;;;;;;5021158;28;20033;-77
2023/08/31 02:55:34;;;;;;;39.88;20.67;;;11.60;99.90;;;;;;5020404;28;20061;-74
2023/08/31 02:58:00;;;;;;;44.30;20.33;;;11.60;99.90;;;;;;5020814;28;20064;-76
2023/08/31 03:00:28;;;;;;;33.58;18.00;;;11.60;99.90;;;;;;5022197;28;20026;-77
2023/08/31 03:02:53;;;;;;;30.40;15.13;;;11.60;99.90;;;;;;5021526;28;20030;-75
2023/08/31 03:05:21;;;;;;;31.35;13.85;;;11.60;99.90;;;;;;5022026;28;20092;-76
2023/08/31 03:07:46;;;;;;;28.42;11.50;;;11.60;99.90;;;;;;5020374;28;20094;-76
2023/08/31 03:10:12;;;;;;;18.42;9.85;;;11.60;99.90;;;;;;5021598;28;20062;-77
2023/08/31 03:12:38;;;;;;;19.58;10.02;;;11.50;99.90;;;;;;5021306;28;20072;-75
2023/08/31 03:15:06;;;;;;;15.45;8.20;;;11.50;99.90;;;;;;5021830;28;20022;-76
2023/08/31 03:17:31;;;;;;;11.88;6.88;;;11.50;99.90;;;;;;5021917;28;20558;-78
2023/08/31 03:19:57;;;;;;;12.38;7.00;;;11.40;99.90;;;;;;5021910;28;20021;-73
2023/08/31 03:22:23;;;;;;;11.27;5.72;;;11.40;99.90;;;;;;5020799;28;20026;-74
2023/08/31 03:24:48;;;;;;;12.70;5.55;;;11.40;99.90;;;;;;5021178;28;20018;-76
2023/08/31 03:27:15;;;;;;;15.48;6.05;;;11.40;99.90;;;;;;5020422;28;20037;-78
2023/08/31 03:29:42;;;;;;;12.27;5.60;;;11.40;99.90;;;;;;5021875;28;20394;-75
2023/08/31 03:32:08;;;;;;;14.27;5.57;;;11.40;99.90;;;;;;5020036;28;20026;-76
2023/08/31 03:34:34;;;;;;;11.02;5.30;;;11.30;99.90;;;;;;5019165;28;20594;-76
2023/08/31 03:36:59;;;;;;;13.30;5.82;;;11.30;99.90;;;;;;5021643;28;20040;-76
2023/08/31 03:39:25;;;;;;;11.50;4.93;;;11.30;99.90;;;;;;5021425;28;20046;-76
2023/08/31 03:41:51;;;;;;;12.45;5.20;;;11.30;99.90;;;;;;5020371;28;20022;-77
2023/08/31 03:44:17;;;;;;;11.27;5.18;;;11.30;99.90;;;;;;5020578;28;20061;-76
2023/08/31 03:46:43;;;;;;;13.73;5.53;;;11.30;99.90;;;;;;5020235;28;20045;-76
2023/08/31 03:49:10;;;;;;;12.10;5.15;;;11.20;99.90;;;;;;5020993;28;20033;-76
2023/08/31 03:51:35;;;;;;;14.63;5.60;;;11.20;99.90;;;;;;5019605;28;20049;-76
2023/08/31 03:54:01;;;;;;;9.13;5.15;;;11.20;99.90;;;;;;5019731;28;20026;-75
2023/08/31 03:56:26;;;;;;;14.32;5.65;;;11.30;99.90;;;;;;5020455;28;20053;-76
2023/08/31 03:58:53;;;;;;;13.88;5.47;;;11.20;99.90;;;;;;5021424;28;20030;-77
2023/08/31 04:01:18;;;;;;;10.13;5.38;;;11.10;99.90;;;;;;5020784;28;20042;-78
2023/08/31 04:03:45;;;;;;;12.45;5.50;;;11.20;99.90;;;;;;5020046;28;20022;-77
2023/08/31 04:06:11;;;;;;;15.32;6.25;;;11.10;99.90;;;;;;5019286;28;20124;-77
2023/08/31 04:08:36;;;;;;;9.95;5.40;;;11.10;99.90;;;;;;5019394;28;20501;-77
2023/08/31 04:11:03;;;;;;;15.63;6.00;;;11.10;99.90;;;;;;5019874;28;20026;-76
2023/08/31 04:13:29;;;;;;;12.93;6.20;;;11.10;99.90;;;;;;5019791;28;20502;-76
2023/08/31 04:15:54;;;;;;;12.77;6.35;;;11.10;99.90;;;;;;5018539;28;20037;-75
2023/08/31 04:18:20;;;;;;;13.85;6.28;;;11.00;99.90;;;;;;5019880;28;20026;-76
2023/08/31 04:20:50;;;;;;;19.23;6.47;;;11.10;99.90;;;;;;5020594;28;20121;-77
2023/08/31 04:23:17;;;;;;;14.00;6.32;;;11.10;99.90;;;;;;5019375;28;20030;-76
2023/08/31 04:25:44;;;;;;;15.57;6.50;;;11.00;99.90;;;;;;5019992;28;20050;-77
2023/08/31 04:28:09;;;;;;;16.27;6.78;;;11.00;99.90;;;;;;5018738;28;20094;-77
2023/08/31 04:30:35;;;;;;;11.82;6.63;;;11.00;99.90;;;;;;5019686;28;20062;-77
2023/08/31 04:33:01;;;;;;;12.70;6.07;;;11.00;99.90;;;;;;5019130;28;20034;-76
2023/08/31 04:35:26;;;;;;;18.60;7.45;;;11.00;99.90;;;;;;5018724;28;20054;-76
2023/08/31 04:37:52;;;;;;;16.13;7.53;;;11.00;99.90;;;;;;5020565;28;20022;-79
2023/08/31 04:40:18;;;;;;;14.48;6.80;;;11.00;99.90;;;;;;5021062;28;20015;-75
2023/08/31 04:42:44;;;;;;;21.00;7.80;;;11.00;99.90;;;;;;5021017;28;20041;-78
2023/08/31 04:45:12;;;;;;;18.23;7.65;;;11.00;99.90;;;;;;5020085;28;20044;-79
2023/08/31 04:47:37;;;;;;;17.55;7.53;;;11.00;99.90;;;;;;5019155;28;20483;-76
2023/08/31 04:50:06;;;;;;;17.75;7.13;;;11.00;99.90;;;;;;5018700;28;20086;-76
2023/08/31 04:52:32;;;;;;;14.45;7.60;;;11.00;99.90;;;;;;5018933;28;20518;-78
2023/08/31 04:54:57;;;;;;;17.63;7.53;;;11.00;99.90;;;;;;5019177;28;20022;-76
2023/08/31 04:57:24;;;;;;;18.83;8.32;;;10.90;99.90;;;;;;5021009;28;20105;-76
2023/08/31 04:59:49;;;;;;;20.60;7.95;;;10.90;99.90;;;;;;5020429;28;20025;-78
2023/08/31 05:02:15;;;;;;;16.23;8.50;;;10.90;99.90;;;;;;5019386;28;20075;-77
2023/08/31 05:04:41;;;;;;;15.68;8.13;;;10.90;99.90;;;;;;5021023;28;20100;-77
2023/08/31 05:07:07;;;;;;;17.23;7.90;;;10.90;99.90;;;;;;5019768;28;20046;-74
2023/08/31 05:09:34;;;;;;;16.33;8.27;;;10.90;99.90;;;;;;5021388;28;20033;-76
2023/08/31 05:12:02;;;;;;;21.98;8.55;;;11.00;99.90;;;;;;5021058;28;20076;-78
2023/08/31 05:14:28;;;;;;;17.80;8.52;;;11.00;99.90;;;;;;5019651;28;20053;-76
2023/08/31 05:16:53;;;;;;;15.05;8.13;;;10.90;99.90;;;;;;5017772;28;20030;-78
2023/08/31 05:19:19;;;;;;;17.45;8.13;;;11.00;99.90;;;;;;5019696;28;20038;-76
2023/08/31 05:21:44;;;;;;;21.83;9.13;;;11.00;99.90;;;;;;5019892;28;20029;-77
2023/08/31 05:24:10;;;;;;;18.35;8.40;;;11.00;99.90;;;;;;5021002;28;20506;-78
2023/08/31 05:26:36;;;;;;;20.63;8.98;;;11.00;99.90;;;;;;5021794;28;20061;-77
2023/08/31 05:29:03;;;;;;;17.35;9.02;;;11.00;99.90;;;;;;5024801;28;20050;-76
2023/08/31 05:31:29;;;;;;;22.02;9.18;;;11.00;99.90;;;;;;5022266;28;20022;-76
2023/08/31 05:33:55;;;;;;;17.58;8.93;;;11.10;99.90;;;;;;5020258;28;20075;-76
2023/08/31 05:36:21;;;;;;;18.13;9.30;;;11.00;99.90;;;;;;5020458;28;20048;-76
2023/08/31 05:38:46;;;;;;;17.00;9.00;;;11.10;99.90;;;;;;5024289;28;20033;-77
2023/08/31 05:41:12;;;;;;;21.77;9.27;;;11.10;99.90;;;;;;5022395;28;20076;-78
2023/08/31 05:43:41;;;;;;;22.80;8.73;;;11.10;99.90;;;;;;5022863;28;20040;-76
2023/08/31 05:46:08;;;;;;;21.75;9.93;;;11.20;99.90;;;;;;5019508;28;20033;-78
2023/08/31 05:48:36;;;;;;;18.80;9.60;;;11.20;99.90;;;;;;5027684;28;20132;-76
2023/08/31 05:51:03;;;;;;;20.92;9.85;;;11.30;99.90;;;;;;5020239;28;20034;-75
2023/08/31 05:53:33;;;;;;;21.38;8.48;;;11.30;99.90;;;;;;5022819;28;20102;-76
2023/08/31 05:56:06;;;;;;;14.02;8.40;;;11.40;99.90;;;;;;5026526;28;20044;-75
2023/08/31 05:58:34;;;;;;;20.48;9.55;;;11.40;99.90;;;;;;5021661;28;20038;-75
2023/08/31 06:01:07;;;;;;;17.02;9.05;;;11.50;99.90;;;;;;5023785;28;20026;-73
2023/08/31 06:03:32;;;;;;;17.23;9.15;;;11.50;99.90;;;;;;5023057;28;20064;-74
2023/08/31 06:05:59;;;;;;;18.80;10.02;;;11.50;99.90;;;;;;5022918;28;20067;-76
2023/08/31 06:08:25;;;;;;;21.48;10.27;;;11.60;99.90;;;;;;5024068;28;20089;-76
2023/08/31 06:10:51;;;;;;;23.67;11.30;;;11.60;99.90;;;;;;5023955;28;20499;-73
2023/08/31 06:13:17;;;;;;;29.30;11.50;;;11.60;99.90;;;;;;5022546;28;20026;-75
2023/08/31 06:15:47;;;;;;;23.25;11.15;;;11.70;99.90;;;;;;5022900;28;20026;-77
2023/08/31 06:18:12;;;;;;;20.75;10.15;;;11.80;99.90;;;;;;5022195;28;20022;-77
2023/08/31 06:20:38;;;;;;;20.42;10.38;;;11.80;99.90;;;;;;5022443;28;20121;-76
2023/08/31 06:23:04;;;;;;;20.85;10.35;;;11.90;99.90;;;;;;5022347;28;20030;-76
2023/08/31 06:25:30;;;;;;;23.92;10.35;;;11.90;99.90;;;;;;5022007;28;20521;-75
2023/08/31 06:27:55;;;;;;;20.92;10.60;;;12.00;99.90;;;;;;5022220;28;20447;-77
2023/08/31 06:30:21;;;;;;;21.23;10.05;;;12.10;99.90;;;;;;5021494;28;20497;-77
2023/08/31 06:32:47;;;;;;;15.60;8.93;;;12.10;99.90;;;;;;5023201;28;20028;-76
2023/08/31 06:35:15;;;;;;;14.25;7.78;;;12.20;99.90;;;;;;5022114;28;20056;-72
2023/08/31 06:37:42;;;;;;;15.50;8.45;;;12.20;99.90;;;;;;5021405;28;20030;-75
2023/08/31 06:40:09;;;;;;;11.95;7.32;;;12.30;99.90;;;;;;5022856;28;20042;-73
2023/08/31 06:42:36;;;;;;;18.85;8.30;;;12.40;99.90;;;;;;5023533;28;20030;-73
2023/08/31 06:45:09;;;;;;;18.50;8.20;;;12.50;99.90;;;;;;5022868;28;20017;-76
2023/08/31 06:47:36;;;;;;;16.83;7.60;;;12.60;99.90;;;;;;5028560;28;20136;-75
2023/08/31 06:50:03;;;;;;;16.23;8.02;;;12.70;99.90;;;;;;5021655;28;20093;-71
2023/08/31 06:52:29;;;;;;;17.50;8.77;;;12.70;99.90;;;;;;5021914;28;20032;-75
2023/08/31 06:54:55;;;;;;;17.08;8.93;;;12.80;99.90;;;;;;5020465;28;20030;-79
2023/08/31 06:57:24;;;;;;;14.82;8.98;;;12.80;99.90;;;;;;5020863;28;20080;-74
2023/08/31 06:59:50;;;;;;;20.83;9.27;;;12.90;99.90;;;;;;5020340;28;20088;-70
2023/08/31 07:02:16;;;;;;;14.27;9.05;;;12.90;99.90;;;;;;5020721;28;20026;-77
2023/08/31 07:04:43;;;;;;;19.65;9.77;;;12.90;99.90;;;;;;5018259;28;20026;-74
2023/08/31 07:07:09;;;;;;;14.82;9.38;;;12.90;99.90;;;;;;5018470;28;20471;-75
2023/08/31 07:09:35;;;;;;;19.10;9.85;;;12.90;99.90;;;;;;5021066;28;20029;-74
2023/08/31 07:12:03;;;;;;;17.40;9.07;;;13.00;99.90;;;;;;5021347;28;20034;-75
2023/08/31 07:14:29;;;;;;;17.48;9.48;;;13.00;99.90;;;;;;5019659;28;20169;-76
2023/08/31 07:16:54;;;;;;;21.75;9.90;;;13.00;99.90;;;;;;5022689;28;20066;-75
2023/08/31 07:19:20;;;;;;;17.38;9.73;;;13.00;99.90;;;;;;5021158;28;20028;-75
2023/08/31 07:21:47;;;;;;;19.65;10.30;;;13.10;99.90;;;;;;5018873;28;20044;-73
2023/08/31 07:24:15;;;;;;;16.65;9.82;;;13.10;99.90;;;;;;5001846;28;20054;-72
2023/08/31 07:26:40;;;;;;;16.95;10.30;;;13.10;99.90;;;;;;5002458;28;20026;-75
2023/08/31 07:29:06;;;;;;;20.35;10.23;;;13.10;99.90;;;;;;5002071;28;20169;-73
2023/08/31 07:31:32;;;;;;;18.55;11.05;;;13.00;99.90;;;;;;5001639;28;20038;-78
2023/08/31 07:33:57;;;;;;;18.33;10.18;;;13.10;99.90;;;;;;5002297;28;20046;-76
2023/08/31 07:36:24;;;;;;;16.75;10.82;;;13.10;99.90;;;;;;5001144;28;20033;-74
2023/08/31 07:38:50;;;;;;;16.35;10.52;;;13.10;99.90;;;;;;5001446;28;20096;-77
2023/08/31 07:41:15;;;;;;;16.27;10.65;;;13.10;99.90;;;;;;5000442;28;20031;-77
2023/08/31 07:43:42;;;;;;;18.23;11.15;;;13.10;99.90;;;;;;4998831;28;20030;-76
2023/08/31 07:46:08;;;;;;;18.95;11.40;;;13.20;99.90;;;;;;4999393;28;20515;-74
2023/08/31 07:48:34;;;;;;;19.35;11.25;;;13.20;99.90;;;;;;4999892;28;20034;-75
2023/08/31 07:51:00;;;;;;;17.25;11.13;;;13.20;99.90;;;;;;5000448;28;20069;-75
2023/08/31 07:53:25;;;;;;;16.13;11.30;;;13.30;99.90;;;;;;4999235;28;20030;-76
2023/08/31 07:55:56;;;;;;;16.23;10.95;;;13.30;99.90;;;;;;4999432;28;20045;-77
2023/08/31 07:58:22;;;;;;;19.25;11.77;;;13.30;99.90;;;;;;4994497;28;20030;-76
2023/08/31 08:00:48;;;;;;;17.75;12.20;;;13.30;99.90;;;;;;4996093;28;20484;-76
2023/08/31 08:03:15;;;;;;;16.55;11.18;;;13.20;99.90;;;;;;4994612;28;20114;-78
2023/08/31 08:05:41;;;;;;;14.63;10.32;;;13.20;99.90;;;;;;4996408;28;20041;-79
2023/08/31 08:08:08;;;;;;;18.23;11.27;;;13.20;99.90;;;;;;4997720;28;20407;-75
2023/08/31 08:10:33;;;;;;;17.95;11.88;;;13.20;99.90;;;;;;4997638;28;20427;-75
2023/08/31 08:12:59;;;;;;;17.48;10.48;;;13.20;99.90;;;;;;4998656;28;20045;-72
2023/08/31 08:15:25;;;;;;;17.58;10.95;;;13.20;99.90;;;;;;4997205;28;20026;-76
2023/08/31 08:17:51;;;;;;;15.55;11.00;;;13.20;99.90;;;;;;4998068;28;20104;-75
2023/08/31 08:20:16;;;;;;;16.48;9.85;;;13.20;99.90;;;;;;4999549;28;20395;-73
2023/08/31 08:22:43;;;;;;;19.08;9.63;;;13.20;99.90;;;;;;4998533;28;20038;-79
2023/08/31 08:25:09;;;;;;;14.35;9.40;;;13.30;99.90;;;;;;4999354;28;20380;-77
2023/08/31 08:27:36;;;;;;;18.90;9.32;;;13.30;99.90;;;;;;4999531;28;20066;-74
2023/08/31 08:30:02;;;;;;;14.10;8.60;;;13.50;99.90;;;;;;5000085;28;20030;-74
2023/08/31 08:32:28;;;;;;;15.35;8.57;;;13.60;99.90;;;;;;5000191;28;20018;-76
2023/08/31 08:34:54;;;;;;;12.32;7.93;;;13.70;99.90;;;;;;4999980;28;20069;-75
2023/08/31 08:37:19;;;;;;;10.00;7.57;;;13.90;99.90;;;;;;5001114;28;20062;-75
2023/08/31 08:39:51;;;;;;;12.02;6.68;;;13.90;99.90;;;;;;4998045;28;20037;-77
2023/08/31 08:42:18;;;;;;;14.95;7.30;;;14.00;99.90;;;;;;4995847;28;20030;-78
2023/08/31 08:44:45;;;;;;;8.57;6.45;;;14.00;99.90;;;;;;4997377;28;20412;-76
2023/08/31 08:47:13;;;;;;;9.95;6.55;;;14.00;99.90;;;;;;4997890;28;20038;-75
2023/08/31 08:49:39;;;;;;;11.07;6.70;;;13.90;99.90;;;;;;4999541;28;20030;-75
2023/08/31 08:52:05;;;;;;;9.95;6.70;;;13.80;99.90;;;;;;4999202;28;20030;-77
2023/08/31 08:54:31;;;;;;;13.32;6.35;;;13.80;99.90;;;;;;5000014;28;20579;-74
2023/08/31 08:56:57;;;;;;;9.30;6.15;;;13.80;99.90;;;;;;5001344;28;20030;-73
2023/08/31 08:59:24;;;;;;;10.82;5.95;;;13.80;99.90;;;;;;5000901;28;20038;-75
2023/08/31 09:01:50;;;;;;;11.20;5.70;;;13.80;99.90;;;;;;4999807;28;20065;-77
2023/08/31 09:04:16;;;;;;;10.02;5.82;;;13.70;99.90;;;;;;5004159;28;20037;-80
2023/08/31 09:06:43;;;;;;;10.18;5.65;;;13.70;99.90;;;;;;5003704;28;20043;-78
2023/08/31 09:09:10;;;;;;;11.05;6.03;;;13.70;99.90;;;;;;5002456;28;20019;-77
2023/08/31 09:11:36;;;;;;;10.55;5.75;;;13.70;99.90;;;;;;5003486;28;20483;-76
2023/08/31 09:14:18;;;;;;;9.63;5.57;;;13.80;99.90;;;;;;5002763;28;20038;-77
2023/08/31 09:16:48;;;;;;;8.52;5.57;;;13.80;99.90;;;;;;5003879;28;20026;-76
2023/08/31 09:19:22;;;;;;;11.50;6.00;;;13.80;99.90;;;;;;5001988;28;20037;-74
2023/08/31 09:21:52;;;;;;;12.02;5.88;;;13.90;99.90;;;;;;5001070;28;20041;-75
2023/08/31 09:24:22;;;;;;;12.20;5.85;;;13.90;99.90;;;;;;5000652;28;20045;-78
2023/08/31 09:26:52;;;;;;;8.07;5.78;;;14.00;99.90;;;;;;5003450;28;20038;-76
2023/08/31 09:29:18;;;;;;;8.57;5.38;;;14.00;99.90;;;;;;5002629;28;20044;-76
2023/08/31 09:31:45;;;;;;;11.77;5.53;;;14.20;99.90;;;;;;5001244;28;20073;-78
2023/08/31 09:34:11;;;;;;;11.63;6.05;;;14.30;99.90;;;;;;5003034;28;20050;-75
2023/08/31 09:36:38;;;;;;;14.55;5.65;;;14.40;99.90;;;;;;5002378;28;20049;-76
2023/08/31 09:39:05;;;;;;;9.90;5.53;;;14.60;99.90;;;;;;5003053;28;20031;-76
2023/08/31 09:41:31;;;;;;;9.40;5.20;;;14.80;99.90;;;;;;5003161;28;20035;-75
2023/08/31 09:44:15;;;;;;;9.80;5.18;;;15.00;99.90;;;;;;5001229;28;20031;-78
2023/08/31 09:46:41;;;;;;;11.73;4.60;;;15.20;99.90;;;;;;5001753;28;20038;-80
2023/08/31 09:49:07;;;;;;;6.47;4.20;;;15.30;99.90;;;;;;5001972;28;20030;-75
2023/08/31 09:51:35;;;;;;;9.02;4.82;;;15.20;99.90;;;;;;5001574;28;20034;-71
2023/08/31 09:54:03;;;;;;;12.70;4.80;;;15.20;99.90;;;;;;5003143;28;20856;-76
2023/08/31 09:56:33;;;;;;;10.60;5.00;;;15.10;99.90;;;;;;5001748;28;20042;-76
2023/08/31 09:58:58;;;;;;;7.40;4.88;;;15.10;99.90;;;;;;5001739;28;20030;-75
2023/08/31 10:01:24;;;;;;;6.65;4.18;;;15.10;99.90;;;;;;5002094;28;20045;-77
2023/08/31 10:03:51;;;;;;;9.43;4.90;;;15.10;99.90;;;;;;5003734;28;20407;-75
2023/08/31 10:06:18;;;;;;;7.45;4.13;;;15.20;99.90;;;;;;5001868;28;20085;-76
2023/08/31 10:08:44;;;;;;;8.10;4.40;;;15.40;99.90;;;;;;5002460;28;20026;-76
2023/08/31 10:11:13;;;;;;;7.38;4.10;;;15.50;99.90;;;;;;5001093;28;20031;-77
2023/08/31 10:13:42;;;;;;;5.40;3.50;;;15.70;99.90;;;;;;5000622;28;20038;-76
2023/08/31 10:16:10;;;;;;;6.53;3.78;;;15.80;99.90;;;;;;4999837;28;20923;-73
2023/08/31 10:18:36;;;;;;;8.23;4.20;;;16.00;99.90;;;;;;5001876;28;20037;-77
2023/08/31 10:21:03;;;;;;;9.73;3.58;;;16.10;99.90;;;;;;5000524;28;20030;-79
2023/08/31 10:23:29;;;;;;;7.07;3.30;;;16.20;99.90;;;;;;5001232;28;20632;-77
2023/08/31 10:25:55;;;;;;;6.60;3.40;;;16.40;99.90;;;;;;5000547;28;20046;-76
2023/08/31 10:28:22;;;;;;;6.90;3.40;;;16.60;99.90;;;;;;5004282;28;20026;-74
2023/08/31 10:31:05;;;;;;;4.50;3.28;;;16.70;99.90;;;;;;5001402;28;20615;-77
2023/08/31 10:33:33;;;;;;;5.88;2.80;;;16.80;99.90;;;;;;5002192;28;20086;-76
2023/08/31 10:35:59;;;;;;;6.63;2.92;;;16.90;99.90;;;;;;5002492;28;20030;-76
2023/08/31 10:38:30;;;;;;;9.30;2.80;;;17.00;99.90;;;;;;5000262;28;20030;-77
2023/08/31 10:41:05;;;;;;;5.75;2.53;;;17.10;99.90;;;;;;5001179;28;20077;-75
2023/08/31 10:43:52;;;;;;;6.50;2.78;;;17.30;99.90;;;;;;5001601;28;20037;-76
2023/08/31 10:46:24;;;;;;;5.13;2.33;;;17.50;99.90;;;;;;5006880;28;20057;-73
2023/08/31 10:48:51;;;;;;;8.43;2.80;;;17.60;99.90;;;;;;5002484;28;20026;-75
2023/08/31 10:51:18;;;;;;;3.30;2.20;;;17.70;99.90;;;;;;5001473;28;20113;-74
2023/08/31 10:53:45;;;;;;;5.63;2.58;;;17.60;99.90;;;;;;5002774;28;20026;-75
2023/08/31 10:56:11;;;;;;;5.75;2.20;;;17.50;99.90;;;;;;5000675;28;20050;-74
2023/08/31 10:58:37;;;;;;;5.63;2.47;;;17.50;99.90;;;;;;5003413;28;20058;-78
2023/08/31 11:01:03;;;;;;;5.72;2.47;;;17.50;99.90;;;;;;5001267;28;20026;-74
2023/08/31 11:03:30;;;;;;;6.40;2.33;;;17.50;99.90;;;;;;5002038;28;20026;-76
2023/08/31 11:05:56;;;;;;;4.35;2.20;;;17.50;99.90;;;;;;5001689;28;20038;-77
2023/08/31 11:08:23;;;;;;;6.05;2.17;;;17.50;99.90;;;;;;5000565;28;20074;-75
2023/08/31 11:10:49;;;;;;;4.80;1.60;;;17.40;99.90;;;;;;5002133;28;20022;-76
2023/08/31 11:13:23;;;;;;;4.30;2.00;;;17.30;99.90;;;;;;5001959;28;20073;-81
2023/08/31 11:15:49;;;;;;;4.25;1.90;;;17.20;99.90;;;;;;5001601;28;20038;-81
2023/08/31 11:18:17;;;;;;;5.00;1.60;;;17.00;99.90;;;;;;5001677;28;20030;-76
2023/08/31 11:20:43;;;;;;;7.45;1.85;;;16.80;99.90;;;;;;4999768;28;20022;-77
2023/08/31 11:23:10;;;;;;;5.72;1.77;;;16.70;99.90;;;;;;5002265;28;20094;-79
2023/08/31 11:25:36;;;;;;;4.03;1.80;;;16.50;99.90;;;;;;5000664;28;21017;-76
2023/08/31 11:28:05;;;;;;;4.35;1.63;;;16.40;99.90;;;;;;5015062;28;20125;-81
2023/08/31 11:30:31;;;;;;;5.82;1.50;;;16.30;99.90;;;;;;4998808;28;20088;-78
2023/08/31 11:33:01;;;;;;;7.03;1.80;;;16.20;99.90;;;;;;4998735;28;20057;-79
2023/08/31 11:35:41;;;;;;;7.63;1.92;;;16.10;99.90;;;;;;5007025;28;20065;-80
2023/08/31 11:38:08;;;;;;;7.10;1.30;;;16.10;99.90;;;;;;4997305;28;20053;-80
2023/08/31 11:40:35;;;;;;;3.97;1.70;;;16.10;99.90;;;;;;4996296;28;20046;-79
2023/08/31 11:43:00;;;;;;;7.78;1.40;;;16.00;99.90;;;;;;4999803;28;20058;-77
2023/08/31 11:45:27;;;;;;;4.07;1.10;;;16.00;99.90;;;;;;5000230;28;20045;-80
2023/08/31 11:47:53;;;;;;;7.10;1.70;;;15.90;99.90;;;;;;4999738;28;20037;-77
2023/08/31 11:50:20;;;;;;;3.83;0.90;;;15.90;99.90;;;;;;5001289;28;20128;-80
2023/08/31 11:52:47;;;;;;;5.60;1.05;;;15.90;99.90;;;;;;5002250;28;20085;-81
2023/08/31 11:55:14;;;;;;;4.53;1.23;;;15.90;99.90;;;;;;5002734;28;20022;-78
2023/08/31 11:57:47;;;;;;;3.10;1.10;;;16.00;99.90;;;;;;5002536;28;20062;-79
2023/08/31 12:00:17;;;;;;;4.28;1.48;;;16.00;99.90;;;;;;5000960;28;20022;-77
2023/08/31 12:02:46;;;;;;;4.15;1.58;;;16.00;99.90;;;;;;5000533;28;20046;-72
2023/08/31 12:05:12;;;;;;;7.43;1.58;;;16.00;99.90;;;;;;5000688;28;20475;-78
2023/08/31 12:07:42;;;;;;;6.28;1.75;;;15.80;99.90;;;;;;5001238;28;20066;-78
2023/08/31 12:10:09;;;;;;;5.60;1.83;;;15.60;99.90;;;;;;5002442;28;20050;-78
2023/08/31 12:12:34;;;;;;;7.70;2.08;;;15.40;99.90;;;;;;5002947;28;20019;-81
2023/08/31 12:15:03;;;;;;;25.20;2.80;;;15.10;99.90;;;;;;5002331;28;20700;-76
2023/08/31 12:17:30;;;;;;;2.60;1.52;;;14.90;99.90;;;;;;5000627;28;20023;-77
2023/08/31 12:20:06;;;;;;;3.67;1.42;;;14.60;99.90;;;;;;5000428;28;20030;-76
2023/08/31 12:22:31;;;;;;;4.40;1.25;;;14.50;99.90;;;;;;5000565;28;20119;-79
2023/08/31 12:24:57;;;;;;;4.32;0.93;;;14.30;99.90;;;;;;5001079;28;20022;-74
2023/08/31 12:27:23;;;;;;;4.15;1.00;;;14.20;99.90;;;;;;5002529;28;20050;-78
2023/08/31 12:29:50;;;;;;;3.08;1.15;;;14.00;99.90;;;;;;5000520;28;20026;-79
2023/08/31 12:32:17;;;;;;;2.22;1.15;;;13.90;99.90;;;;;;5000574;28;20062;-80
2023/08/31 12:34:43;;;;;;;4.88;1.30;;;13.80;99.90;;;;;;5001219;28;20038;-79
2023/08/31 12:37:08;;;;;;;4.85;1.63;;;13.80;99.90;;;;;;5003187;28;20505;-77
2023/08/31 12:39:34;;;;;;;3.95;1.50;;;13.70;99.90;;;;;;5006018;28;20019;-71